Portada
METAR-TAF:

METAR-TAF

Aeroports :

Nova York, Nova York, Estats Units d'Amèrica

latitud: 40-42-04N, longitud: 074-00-32W, altitud: 2 m

Observació

L'informe es va fer fa 27 minuts, a les 22:56 UTC
Vent 4 kt amb direcció variable
Temperatura 8°C
Humitat 53%
Pressió 1029 hPa
Visibilitat: 16.1 km
Cel clar

METAR: KJRB 242256Z AUTO VRB04KT 10SM CLR 08/M01 A3039 RMK AO2 SLP290 T00831011

Hora: 18:23 (23:23 UTC)


TAF: manca

Observacions i pronòstics meteorològics de més de 4000 aeroports (METAR i TAF).

Les estacions disponibles són els punts grocs i vermells al mapa.

Posi el ratolí al punt desitjat per veure el nom de l'estació.

Feu clic per veure les observacions i els pronòstics meteorològics.

Per canviar el mapa: feu clic els botons verds amb una creu de color negre per apropar; al botó verd amb un guió per allunyar la imatge; o en les fletxes verdes per a mapes adjacents.


METAR-TAF: